Time;durP1;ratioP1;P1;durP2;ratioP2;P2;SDS_P1;SDS_P2;PMS_P1;PMS_P2;Temp;Humidity;BMP_temperature;BMP_pressure;BME280_temperature;BME280_humidity;BME280_pressure;Samples;Min_cycle;Max_cycle;Signal;HPM_P1;HPM_P2
2022/07/30 00:02:23;;;;;;;;;;;;;;;18.49;60.62;101218.97;5025701;28;20309;-80
2022/07/30 00:04:48;;;;;;;;;;;;;;;18.48;61.04;101217.25;5026917;28;20393;-81
2022/07/30 00:07:13;;;;;;;;;;;;;;;18.47;61.04;101222.59;5023905;28;20074;-80
2022/07/30 00:09:39;;;;;;;;;;;;;;;18.46;61.13;101221.75;5027508;28;19921;-80
2022/07/30 00:12:05;;;;;;;;;;;;;;;18.48;61.27;101229.56;5027425;28;20336;-80
2022/07/30 00:14:31;;;;;;;;;;;;;;;18.43;61.40;101218.34;5024488;28;19937;-81
2022/07/30 00:16:56;;;;;;;;;;;;;;;18.40;61.48;101215.88;5024577;28;19972;-80
2022/07/30 00:19:21;;;;;;;;;;;;;;;18.42;61.44;101219.31;5026011;28;19925;-80
2022/07/30 00:21:47;;;;;;;;;;;;;;;18.43;61.74;101213.94;5043139;28;19929;-80
2022/07/30 00:24:12;;;;;;;;;;;;;;;18.40;61.75;101219.34;5030281;28;20373;-80
2022/07/30 00:26:37;;;;;;;;;;;;;;;18.37;61.82;101214.25;5032834;28;19914;-80
2022/07/30 00:29:03;;;;;;;;;;;;;;;18.39;61.58;101214.19;5058140;28;19925;-80
2022/07/30 00:31:29;;;;;;;;;;;;;;;18.36;61.54;101214.31;5025048;28;19925;-80
2022/07/30 00:33:54;;;;;;;;;;;;;;;18.36;61.53;101209.88;5028935;28;20293;-80
2022/07/30 00:36:19;;;;;;;;;;;;;;;18.31;61.77;101213.66;5027377;28;19917;-80
2022/07/30 00:38:45;;;;;;;;;;;;;;;18.34;61.68;101206.47;5029748;28;19947;-80
2022/07/30 00:41:10;;;;;;;;;;;;;;;18.33;61.64;101210.06;5031663;28;20471;-80
2022/07/30 00:43:36;;;;;;;;;;;;;;;18.31;61.79;101201.38;5034458;28;19920;-80
2022/07/30 00:46:01;;;;;;;;;;;;;;;18.31;61.92;101214.50;5031754;28;19968;-80
2022/07/30 00:48:26;;;;;;;;;;;;;;;18.32;61.93;101208.34;5037469;28;19994;-80
2022/07/30 00:50:52;;;;;;;;;;;;;;;18.31;61.77;101208.41;5032344;28;19925;-80
2022/07/30 00:53:17;;;;;;;;;;;;;;;18.27;62.21;101215.59;5028732;28;20353;-80
2022/07/30 00:55:42;;;;;;;;;;;;;;;18.29;61.79;101207.63;5029641;28;20019;-80
2022/07/30 00:58:08;;;;;;;;;;;;;;;18.28;62.25;101216.44;5031179;28;19921;-80
2022/07/30 01:00:33;;;;;;;;;;;;;;;18.25;62.07;101208.69;5028685;28;19955;-80
2022/07/30 01:02:58;;;;;;;;;;;;;;;18.27;61.37;101205.09;5030190;28;19920;-80
2022/07/30 01:05:24;;;;;;;;;;;;;;;18.29;61.27;101203.22;5028847;28;19932;-80
2022/07/30 01:07:50;;;;;;;;;;;;;;;18.23;61.58;101202.66;5028833;28;19921;-80
2022/07/30 01:10:16;;;;;;;;;;;;;;;18.25;61.09;101204.28;5028104;28;20457;-80
2022/07/30 01:12:42;;;;;;;;;;;;;;;18.26;61.50;101206.00;5030468;28;19925;-80
2022/07/30 01:15:08;;;;;;;;;;;;;;;18.23;61.63;101210.53;5030353;28;20016;-80
2022/07/30 01:17:34;;;;;;;;;;;;;;;18.19;61.44;101207.19;5035154;28;20443;-80
2022/07/30 01:20:10;;;;;;;;;;;;;;;18.16;61.80;101205.56;5031335;28;19960;-81
2022/07/30 01:22:43;;;;;;;;;;;;;;;18.16;61.75;101202.06;5030200;28;20874;-80
2022/07/30 01:25:19;;;;;;;;;;;;;;;18.17;61.53;101211.66;5033903;28;19948;-80
2022/07/30 01:27:47;;;;;;;;;;;;;;;18.10;61.68;101213.72;5032379;28;19925;-80
2022/07/30 01:30:14;;;;;;;;;;;;;;;18.14;60.66;101217.94;5028291;28;19921;-80
2022/07/30 01:32:42;;;;;;;;;;;;;;;18.23;60.49;101206.13;5029761;28;20286;-81
2022/07/30 01:35:08;;;;;;;;;;;;;;;18.18;60.20;101211.59;5027347;28;19956;-80
2022/07/30 01:37:34;;;;;;;;;;;;;;;18.20;60.16;101208.91;5030775;28;19956;-81
2022/07/30 01:40:00;;;;;;;;;;;;;;;18.13;60.16;101210.09;5028421;28;19968;-80
2022/07/30 01:42:26;;;;;;;;;;;;;;;18.15;60.12;101219.59;5028092;28;19921;-81
2022/07/30 01:44:52;;;;;;;;;;;;;;;18.12;60.75;101217.13;5029550;28;19927;-80
2022/07/30 01:47:18;;;;;;;;;;;;;;;18.20;59.57;101222.06;5025943;28;20004;-80
2022/07/30 01:49:45;;;;;;;;;;;;;;;18.14;59.87;101215.28;5029711;28;19944;-81
2022/07/30 01:52:10;;;;;;;;;;;;;;;18.14;60.08;101223.19;5028834;28;19936;-80
2022/07/30 01:54:36;;;;;;;;;;;;;;;18.16;59.32;101218.69;5029720;28;19929;-80
2022/07/30 01:57:03;;;;;;;;;;;;;;;18.18;60.06;101226.53;5032043;28;20282;-80
2022/07/30 01:59:30;;;;;;;;;;;;;;;18.20;58.78;101229.09;5029516;28;19921;-80
2022/07/30 02:01:55;;;;;;;;;;;;;;;18.13;58.72;101220.59;5024329;28;19921;-80
2022/07/30 02:04:21;;;;;;;;;;;;;;;18.14;59.00;101231.06;5026644;28;19932;-80
2022/07/30 02:07:13;;;;;;;;;;;;;;;18.12;58.46;101232.91;5042319;28;19928;-80
2022/07/30 02:10:11;;;;;;;;;;;;;;;18.16;58.97;101231.84;5043207;28;19930;-80
2022/07/30 02:12:40;;;;;;;;;;;;;;;18.25;57.51;101233.22;5016188;28;20057;-80
2022/07/30 02:15:20;;;;;;;;;;;;;;;18.23;57.65;101234.19;5028247;28;19917;-80
2022/07/30 02:17:52;;;;;;;;;;;;;;;18.20;57.88;101235.19;5028151;28;19921;-80
2022/07/30 02:20:17;;;;;;;;;;;;;;;18.18;57.95;101232.63;5028839;28;19921;-80
2022/07/30 02:22:45;;;;;;;;;;;;;;;18.19;58.21;101230.84;5030605;28;19921;-80
2022/07/30 02:25:12;;;;;;;;;;;;;;;18.12;58.54;101230.25;5026976;28;19921;-80
2022/07/30 02:27:40;;;;;;;;;;;;;;;18.12;58.20;101230.25;5028044;28;19932;-80
2022/07/30 02:30:06;;;;;;;;;;;;;;;18.13;57.47;101224.09;5024442;28;19928;-81
2022/07/30 02:32:33;;;;;;;;;;;;;;;18.03;57.98;101221.97;5027677;28;20419;-81
2022/07/30 02:35:00;;;;;;;;;;;;;;;18.09;57.55;101221.69;5058538;28;19974;-80
2022/07/30 02:37:26;;;;;;;;;;;;;;;18.07;58.13;101224.38;5025560;28;19921;-80
2022/07/30 02:39:52;;;;;;;;;;;;;;;17.84;58.60;101229.78;5027279;28;19936;-80
2022/07/30 02:42:19;;;;;;;;;;;;;;;18.01;58.29;101229.03;5029532;28;20321;-80
2022/07/30 02:44:44;;;;;;;;;;;;;;;18.03;58.37;101237.75;5026869;28;20077;-80
2022/07/30 02:47:11;;;;;;;;;;;;;;;18.06;57.55;101234.97;5026376;28;19921;-81
2022/07/30 02:49:38;;;;;;;;;;;;;;;18.03;58.48;101243.84;5031444;28;19974;-81
2022/07/30 02:52:07;;;;;;;;;;;;;;;17.93;58.20;101239.06;5028152;28;19925;-80
2022/07/30 02:54:38;;;;;;;;;;;;;;;18.06;57.99;101237.59;5030850;28;19928;-81
2022/07/30 02:57:05;;;;;;;;;;;;;;;17.93;58.14;101239.06;5030038;28;19917;-81
2022/07/30 02:59:32;;;;;;;;;;;;;;;17.95;58.03;101238.06;5029447;28;19928;-81
2022/07/30 03:01:58;;;;;;;;;;;;;;;17.86;58.34;101248.97;5028384;28;19925;-81
2022/07/30 03:04:24;;;;;;;;;;;;;;;17.91;58.19;101244.38;5028650;28;19977;-80
2022/07/30 03:06:50;;;;;;;;;;;;;;;17.92;58.70;101245.22;5023660;28;19922;-81
2022/07/30 03:09:17;;;;;;;;;;;;;;;17.93;58.35;101254.81;5026978;28;20443;-80
2022/07/30 03:11:42;;;;;;;;;;;;;;;17.89;58.35;101247.97;5027039;28;20015;-80
2022/07/30 03:14:09;;;;;;;;;;;;;;;17.91;58.01;101254.91;5025384;28;20067;-80
2022/07/30 03:16:36;;;;;;;;;;;;;;;17.86;58.47;101250.75;5028633;28;19952;-80
2022/07/30 03:19:02;;;;;;;;;;;;;;;17.88;58.78;101260.28;5059535;28;19925;-80
2022/07/30 03:21:31;;;;;;;;;;;;;;;17.83;58.40;101261.41;5034412;28;19940;-80
2022/07/30 03:23:57;;;;;;;;;;;;;;;17.92;58.32;101258.34;5030991;28;19920;-80
2022/07/30 03:26:23;;;;;;;;;;;;;;;17.88;58.37;101254.19;5032960;28;19924;-80
2022/07/30 03:28:49;;;;;;;;;;;;;;;17.89;58.74;101259.34;5029011;28;19928;-80
2022/07/30 03:31:15;;;;;;;;;;;;;;;17.97;57.87;101257.25;5027143;28;19925;-80
2022/07/30 03:33:41;;;;;;;;;;;;;;;17.90;58.69;101252.31;5026044;28;20019;-80
2022/07/30 03:36:07;;;;;;;;;;;;;;;17.87;59.10;101258.56;5027298;28;19917;-80
2022/07/30 03:38:33;;;;;;;;;;;;;;;17.87;58.89;101261.19;5021151;28;19917;-80
2022/07/30 03:40:59;;;;;;;;;;;;;;;17.85;58.70;101264.81;5029911;28;20402;-81
2022/07/30 03:43:25;;;;;;;;;;;;;;;17.83;58.62;101270.13;5026048;28;20420;-80
2022/07/30 03:45:51;;;;;;;;;;;;;;;17.73;59.09;101270.59;5026473;28;19921;-80
2022/07/30 03:48:17;;;;;;;;;;;;;;;17.79;58.64;101268.56;5026546;28;19936;-80
2022/07/30 03:50:42;;;;;;;;;;;;;;;17.80;59.30;101279.94;5028745;28;19913;-80
2022/07/30 03:53:08;;;;;;;;;;;;;;;17.78;59.15;101285.25;5030988;28;20404;-81
2022/07/30 03:55:34;;;;;;;;;;;;;;;17.82;59.15;101288.59;5030479;28;20208;-81
2022/07/30 03:58:00;;;;;;;;;;;;;;;17.85;59.23;101285.84;5027057;28;19928;-81
2022/07/30 04:00:26;;;;;;;;;;;;;;;17.85;58.71;101284.06;5024469;28;19917;-80
2022/07/30 04:02:52;;;;;;;;;;;;;;;17.77;59.88;101291.41;5029105;28;19956;-80
2022/07/30 04:05:18;;;;;;;;;;;;;;;17.74;59.93;101288.09;5027031;28;19921;-80
2022/07/30 04:07:43;;;;;;;;;;;;;;;17.73;59.48;101300.38;5056305;28;19936;-81
2022/07/30 04:10:09;;;;;;;;;;;;;;;17.74;59.88;101296.78;5027877;28;19928;-80
2022/07/30 04:12:34;;;;;;;;;;;;;;;17.76;60.03;101296.75;5030148;28;19944;-80
2022/07/30 04:14:59;;;;;;;;;;;;;;;17.74;60.26;101296.78;5030272;28;19925;-81
2022/07/30 04:17:45;;;;;;;;;;;;;;;17.68;60.19;101299.69;5029453;28;19921;-80
2022/07/30 04:20:18;;;;;;;;;;;;;;;17.76;60.09;101294.13;5032078;28;19932;-81
2022/07/30 04:22:43;;;;;;;;;;;;;;;17.69;60.28;101306.66;5033358;28;19929;-80
2022/07/30 04:25:09;;;;;;;;;;;;;;;17.68;60.02;101307.56;5032465;28;19932;-81
2022/07/30 04:27:35;;;;;;;;;;;;;;;17.75;59.56;101309.03;5029906;28;19921;-80
2022/07/30 04:30:00;;;;;;;;;;;;;;;17.79;59.38;101302.72;5029364;28;20636;-80
2022/07/30 04:32:26;;;;;;;;;;;;;;;17.75;59.71;101319.53;5032395;28;19925;-80
2022/07/30 04:34:52;;;;;;;;;;;;;;;17.76;59.30;101320.41;5027543;28;20867;-80
2022/07/30 04:37:20;;;;;;;;;;;;;;;17.74;59.71;101325.69;5029062;28;19921;-80
2022/07/30 04:39:48;;;;;;;;;;;;;;;17.80;58.92;101328.06;5060988;28;19932;-80
2022/07/30 04:42:14;;;;;;;;;;;;;;;17.71;59.25;101328.44;5031232;28;19924;-81
2022/07/30 04:44:39;;;;;;;;;;;;;;;17.74;59.68;101338.00;5034614;28;19916;-81
2022/07/30 04:47:05;;;;;;;;;;;;;;;17.73;59.28;101331.03;5069274;28;19925;-81
2022/07/30 04:49:30;;;;;;;;;;;;;;;17.67;59.95;101334.78;5033110;28;19997;-80
2022/07/30 04:51:57;;;;;;;;;;;;;;;17.52;60.13;101338.84;5029908;28;19925;-80
2022/07/30 04:54:23;;;;;;;;;;;;;;;17.57;60.39;101342.13;5031573;28;19920;-81
2022/07/30 04:56:50;;;;;;;;;;;;;;;17.70;59.72;101346.94;5030506;28;19968;-80
2022/07/30 04:59:16;;;;;;;;;;;;;;;17.67;60.00;101345.28;5027367;28;20530;-80
2022/07/30 05:01:44;;;;;;;;;;;;;;;17.66;60.11;101345.34;5027795;28;20504;-80
2022/07/30 05:04:10;;;;;;;;;;;;;;;17.70;59.58;101347.78;5031966;28;20054;-80
2022/07/30 05:06:36;;;;;;;;;;;;;;;17.64;59.44;101347.19;5029144;28;19921;-80
2022/07/30 05:09:02;;;;;;;;;;;;;;;17.71;59.39;101349.47;5041672;28;20543;-80
2022/07/30 05:11:27;;;;;;;;;;;;;;;17.65;59.07;101352.34;5029311;28;19983;-80
2022/07/30 05:13:53;;;;;;;;;;;;;;;17.67;59.68;101357.56;5028491;28;19967;-81
2022/07/30 05:16:18;;;;;;;;;;;;;;;17.68;59.34;101354.84;5030771;28;20314;-80
2022/07/30 05:18:44;;;;;;;;;;;;;;;17.63;60.35;101358.59;5031461;28;20015;-80
2022/07/30 05:21:09;;;;;;;;;;;;;;;17.65;59.72;101357.59;5065558;28;19917;-80
2022/07/30 05:23:35;;;;;;;;;;;;;;;17.69;59.64;101355.72;5033375;28;19925;-80
2022/07/30 05:26:00;;;;;;;;;;;;;;;17.62;59.52;101362.16;5036369;28;19924;-81
2022/07/30 05:28:26;;;;;;;;;;;;;;;17.64;60.12;101358.56;5032383;28;19973;-80
2022/07/30 05:30:52;;;;;;;;;;;;;;;17.66;60.57;101361.09;5042248;28;19999;-80
2022/07/30 05:33:18;;;;;;;;;;;;;;;17.64;60.28;101358.56;5036141;28;19925;-80
2022/07/30 05:35:43;;;;;;;;;;;;;;;17.67;60.51;101360.19;5028958;28;20352;-80
2022/07/30 05:38:08;;;;;;;;;;;;;;;17.74;60.07;101362.50;5032603;28;21063;-80
2022/07/30 05:40:34;;;;;;;;;;;;;;;17.69;60.42;101363.59;5031865;28;20337;-80
2022/07/30 05:42:59;;;;;;;;;;;;;;;17.71;60.21;101362.63;5045383;28;19952;-80
2022/07/30 05:45:24;;;;;;;;;;;;;;;17.73;60.57;101367.81;5038017;28;19928;-80
2022/07/30 05:47:49;;;;;;;;;;;;;;;17.69;60.94;101363.59;5035285;28;19917;-80
2022/07/30 05:50:15;;;;;;;;;;;;;;;17.69;60.39;101361.84;5030716;28;20390;-80
2022/07/30 05:52:40;;;;;;;;;;;;;;;17.65;61.04;101362.88;5034272;28;19940;-80
2022/07/30 05:55:06;;;;;;;;;;;;;;;17.59;61.52;101369.22;5035298;28;19921;-80
2022/07/30 05:57:34;;;;;;;;;;;;;;;17.70;61.42;101370.56;5033468;28;20024;-80
2022/07/30 05:59:59;;;;;;;;;;;;;;;17.60;61.70;101381.47;5033071;28;19941;-80
2022/07/30 06:02:25;;;;;;;;;;;;;;;17.74;61.38;101374.81;5022584;28;19968;-80
2022/07/30 06:04:50;;;;;;;;;;;;;;;17.74;61.25;101377.44;5027163;28;20317;-80
2022/07/30 06:07:15;;;;;;;;;;;;;;;17.70;61.63;101370.56;5028393;28;19975;-80
2022/07/30 06:09:41;;;;;;;;;;;;;;;17.70;62.43;101375.84;5028546;28;20448;-79
2022/07/30 06:12:06;;;;;;;;;;;;;;;17.52;62.79;101378.25;5035388;28;19918;-81
2022/07/30 06:14:32;;;;;;;;;;;;;;;17.54;63.10;101380.81;5060438;28;19944;-80
2022/07/30 06:16:57;;;;;;;;;;;;;;;17.62;62.37;101386.63;5030533;28;19952;-81
2022/07/30 06:19:22;;;;;;;;;;;;;;;17.65;62.47;101385.69;5035341;28;19925;-81
2022/07/30 06:21:48;;;;;;;;;;;;;;;17.66;62.62;101390.88;5032147;28;20309;-81
2022/07/30 06:24:13;;;;;;;;;;;;;;;17.71;62.50;101381.00;5029311;28;20370;-81
2022/07/30 06:26:38;;;;;;;;;;;;;;;17.77;62.75;101385.19;5064636;28;19921;-81
2022/07/30 06:29:03;;;;;;;;;;;;;;;17.78;63.12;101393.00;5030720;28;19933;-81
2022/07/30 06:31:29;;;;;;;;;;;;;;;17.82;62.85;101389.34;5023986;28;19921;-81
2022/07/30 06:33:54;;;;;;;;;;;;;;;17.79;63.33;101386.81;5045576;28;19925;-79
2022/07/30 06:36:19;;;;;;;;;;;;;;;17.76;63.11;101383.47;5056311;28;19921;-81
2022/07/30 06:38:45;;;;;;;;;;;;;;;17.84;63.15;101386.63;5027400;28;19929;-80
2022/07/30 06:41:10;;;;;;;;;;;;;;;17.78;63.56;101395.63;5026607;28;19963;-80
2022/07/30 06:43:35;;;;;;;;;;;;;;;17.52;64.04;101399.28;5027707;28;19921;-82
2022/07/30 06:46:01;;;;;;;;;;;;;;;17.69;63.64;101397.75;5024553;28;19929;-80
2022/07/30 06:48:26;;;;;;;;;;;;;;;17.86;63.31;101397.91;5040344;28;19929;-80
2022/07/30 06:50:51;;;;;;;;;;;;;;;17.75;64.24;101395.75;5027029;28;19921;-80
2022/07/30 06:53:17;;;;;;;;;;;;;;;17.89;63.46;101401.28;5031508;28;19944;-81
2022/07/30 06:55:42;;;;;;;;;;;;;;;17.89;63.44;101403.91;5031579;28;20035;-81
2022/07/30 06:58:07;;;;;;;;;;;;;;;17.86;63.94;101403.19;5027395;28;19921;-81
2022/07/30 07:00:33;;;;;;;;;;;;;;;17.93;62.82;101399.38;5025818;28;19929;-81
2022/07/30 07:02:58;;;;;;;;;;;;;;;17.92;63.21;101402.94;5025886;28;19917;-81
2022/07/30 07:05:27;;;;;;;;;;;;;;;18.01;62.80;101397.28;5021571;28;19925;-80
2022/07/30 07:07:52;;;;;;;;;;;;;;;18.01;63.00;101397.28;5036747;28;19921;-81
2022/07/30 07:10:19;;;;;;;;;;;;;;;17.99;63.21;101397.38;5060790;28;19929;-80
2022/07/30 07:12:44;;;;;;;;;;;;;;;18.06;62.90;101403.22;5024157;28;19933;-80
2022/07/30 07:15:10;;;;;;;;;;;;;;;17.89;63.56;101401.28;5027540;28;19949;-81
2022/07/30 07:17:35;;;;;;;;;;;;;;;17.95;63.23;101403.66;5003121;28;19936;-81
2022/07/30 07:20:01;;;;;;;;;;;;;;;17.93;63.19;101408.13;5023059;28;19928;-81
2022/07/30 07:22:26;;;;;;;;;;;;;;;17.96;63.16;101408.00;5030064;28;20378;-81
2022/07/30 07:24:52;;;;;;;;;;;;;;;18.00;63.21;101406.13;5027333;28;19968;-80
2022/07/30 07:27:17;;;;;;;;;;;;;;;17.92;63.03;101414.31;5032498;28;20460;-80
2022/07/30 07:29:43;;;;;;;;;;;;;;;18.05;62.49;101412.88;5023057;28;20380;-80
2022/07/30 07:32:08;;;;;;;;;;;;;;;17.99;62.99;101397.38;5059019;28;19932;-81
2022/07/30 07:34:34;;;;;;;;;;;;;;;18.07;62.28;101405.78;5030048;28;19932;-81
2022/07/30 07:36:59;;;;;;;;;;;;;;;17.99;62.99;101404.41;5055185;28;19925;-80
2022/07/30 07:39:24;;;;;;;;;;;;;;;18.12;62.45;101406.44;5020038;28;19922;-80
2022/07/30 07:41:50;;;;;;;;;;;;;;;18.16;61.96;101407.16;5027318;28;20397;-77
2022/07/30 07:44:15;;;;;;;;;;;;;;;18.11;62.39;101415.25;5032273;28;20491;-77
2022/07/30 07:46:40;;;;;;;;;;;;;;;18.20;61.79;101410.53;5055265;28;19921;-77
2022/07/30 07:49:06;;;;;;;;;;;;;;;18.22;61.54;101409.53;5025382;28;19925;-77
2022/07/30 07:51:31;;;;;;;;;;;;;;;18.21;61.45;101413.09;5031995;28;19925;-77
2022/07/30 07:53:58;;;;;;;;;;;;;;;18.15;62.17;101410.75;5023314;28;21281;-77
2022/07/30 07:56:24;;;;;;;;;;;;;;;18.24;61.89;101412.13;5029818;28;19926;-77
2022/07/30 07:58:52;;;;;;;;;;;;;;;18.20;61.49;101421.03;5057813;28;20353;-77
2022/07/30 08:01:18;;;;;;;;;;;;;;;18.16;61.38;101415.06;5043827;28;20377;-77
2022/07/30 08:03:43;;;;;;;;;;;;;;;18.24;61.01;101415.59;5029740;28;20008;-77
2022/07/30 08:06:09;;;;;;;;;;;;;;;18.28;61.02;101406.66;5036131;28;20439;-77
2022/07/30 08:08:35;;;;;;;;;;;;;;;18.22;61.45;101403.41;5027186;28;20341;-77
2022/07/30 08:11:01;;;;;;;;;;;;;;;18.28;61.29;101418.94;5024245;28;19929;-77
2022/07/30 08:13:26;;;;;;;;;;;;;;;18.39;61.04;101416.72;5029717;28;20014;-77
2022/07/30 08:15:51;;;;;;;;;;;;;;;18.40;61.27;101408.75;5026174;28;19967;-77
2022/07/30 08:18:17;;;;;;;;;;;;;;;18.35;61.43;101416.00;5031677;28;19917;-77
2022/07/30 08:20:42;;;;;;;;;;;;;;;18.42;61.13;101420.06;5031116;28;20595;-77
2022/07/30 08:23:08;;;;;;;;;;;;;;;18.44;61.33;101417.38;5045070;28;19964;-77
2022/07/30 08:25:33;;;;;;;;;;;;;;;18.42;61.04;101409.53;5028551;28;20459;-77
2022/07/30 08:28:01;;;;;;;;;;;;;;;18.42;60.79;101408.69;5024287;28;20389;-77
2022/07/30 08:30:27;;;;;;;;;;;;;;;18.36;59.95;101416.84;5024402;28;19933;-77
2022/07/30 08:32:52;;;;;;;;;;;;;;;18.39;59.31;101419.34;5026464;28;20067;-77
2022/07/30 08:35:17;;;;;;;;;;;;;;;18.32;58.85;101421.38;5023838;28;19972;-77
2022/07/30 08:37:43;;;;;;;;;;;;;;;18.41;57.68;101413.09;5028336;28;19929;-76
2022/07/30 08:40:09;;;;;;;;;;;;;;;18.38;58.72;101421.13;5027523;28;19921;-77
2022/07/30 08:42:34;;;;;;;;;;;;;;;18.42;58.98;101425.31;5033037;28;19925;-77
2022/07/30 08:44:59;;;;;;;;;;;;;;;18.47;59.50;101417.28;5028499;28;19917;-77
2022/07/30 08:47:28;;;;;;;;;;;;;;;18.50;59.30;101420.63;5025193;28;19921;-77
2022/07/30 08:50:00;;;;;;;;;;;;;;;18.53;59.63;101419.63;5026831;28;19967;-77
2022/07/30 08:52:25;;;;;;;;;;;;;;;18.53;59.58;101420.50;5028647;28;19929;-77
2022/07/30 08:54:51;;;;;;;;;;;;;;;18.51;59.96;101424.13;5029638;28;19931;-77
2022/07/30 08:57:16;;;;;;;;;;;;;;;18.50;59.06;101423.25;5028636;28;19917;-77
2022/07/30 08:59:42;;;;;;;;;;;;;;;18.56;59.06;101427.41;5065195;28;19921;-77
2022/07/30 09:02:07;;;;;;;;;;;;;;;18.55;60.43;101421.28;5027449;28;19979;-77
2022/07/30 09:04:32;;;;;;;;;;;;;;;18.59;60.28;101430.75;5029129;28;19925;-77
2022/07/30 09:06:58;;;;;;;;;;;;;;;18.59;59.86;101432.53;5027606;28;19933;-77
2022/07/30 09:09:23;;;;;;;;;;;;;;;18.63;59.93;101431.44;5030403;28;19924;-77
2022/07/30 09:11:48;;;;;;;;;;;;;;;18.60;60.18;101426.34;5027777;28;19921;-77
2022/07/30 09:14:14;;;;;;;;;;;;;;;18.63;59.81;101427.06;5035358;28;20024;-77
2022/07/30 09:16:40;;;;;;;;;;;;;;;18.69;59.91;101436.44;5030871;28;19925;-77
2022/07/30 09:19:16;;;;;;;;;;;;;;;18.61;59.57;101438.56;5030706;28;19928;-77
2022/07/30 09:21:41;;;;;;;;;;;;;;;18.60;58.94;101442.16;5035385;28;19928;-77
2022/07/30 09:24:09;;;;;;;;;;;;;;;18.66;59.05;101441.84;5031369;28;19918;-77
2022/07/30 09:26:51;;;;;;;;;;;;;;;18.71;58.96;101437.25;5031685;28;19947;-77
2022/07/30 09:29:21;;;;;;;;;;;;;;;18.75;58.39;101435.34;5028313;28;19928;-77
2022/07/30 09:31:55;;;;;;;;;;;;;;;18.79;58.33;101437.78;5061731;28;19931;-77
2022/07/30 09:34:24;;;;;;;;;;;;;;;18.81;58.19;101437.72;5029082;28;19928;-77
2022/07/30 09:36:49;;;;;;;;;;;;;;;18.83;58.14;101433.22;5033589;28;19979;-77
2022/07/30 09:39:26;;;;;;;;;;;;;;;18.82;58.41;101431.50;5040781;28;20397;-77
2022/07/30 09:41:52;;;;;;;;;;;;;;;18.88;58.70;101428.59;5034590;28;19971;-77
2022/07/30 09:44:24;;;;;;;;;;;;;;;18.91;57.83;101425.84;5027467;28;20665;-77
2022/07/30 09:46:52;;;;;;;;;;;;;;;18.93;57.11;101424.84;5029635;28;20016;-77
2022/07/30 09:49:22;;;;;;;;;;;;;;;18.91;57.35;101429.31;5031005;28;20397;-77
2022/07/30 09:51:48;;;;;;;;;;;;;;;18.91;56.91;101421.44;5030504;28;20051;-77
2022/07/30 09:54:16;;;;;;;;;;;;;;;19.00;56.33;101421.00;5036269;28;19917;-77
2022/07/30 09:56:42;;;;;;;;;;;;;;;19.04;55.62;101419.09;5026020;28;19984;-77
2022/07/30 09:59:27;;;;;;;;;;;;;;;19.04;54.63;101417.31;5029683;28;20429;-77
2022/07/30 10:01:53;;;;;;;;;;;;;;;19.09;55.21;101420.59;5028243;28;19929;-77
2022/07/30 10:04:24;;;;;;;;;;;;;;;19.11;55.54;101425.78;5028312;28;19921;-77
2022/07/30 10:06:50;;;;;;;;;;;;;;;19.12;56.56;101428.34;5034738;28;20612;-77
2022/07/30 10:09:26;;;;;;;;;;;;;;;19.15;57.15;101430.00;5029646;28;20014;-76
2022/07/30 10:11:53;;;;;;;;;;;;;;;19.10;56.64;101427.59;5023364;28;19931;-77
2022/07/30 10:14:19;;;;;;;;;;;;;;;19.12;55.88;101430.13;5028268;28;20345;-77
2022/07/30 10:16:45;;;;;;;;;;;;;;;19.12;55.50;101423.09;5025736;28;20035;-77
2022/07/30 10:19:11;;;;;;;;;;;;;;;19.13;56.12;101422.13;5031880;28;19996;-77
2022/07/30 10:21:36;;;;;;;;;;;;;;;19.15;56.35;101422.94;5033104;28;19929;-77
2022/07/30 10:24:02;;;;;;;;;;;;;;;19.14;54.25;101421.22;5029747;28;19935;-77
2022/07/30 10:26:32;;;;;;;;;;;;;;;19.19;56.60;101426.28;5028029;28;19929;-77
2022/07/30 10:28:57;;;;;;;;;;;;;;;19.14;53.38;101423.00;5024229;28;20381;-77
2022/07/30 10:31:24;;;;;;;;;;;;;;;19.11;53.73;101413.47;5026163;28;19955;-78
2022/07/30 10:33:50;;;;;;;;;;;;;;;19.09;53.52;101417.97;5029712;28;19975;-77
2022/07/30 10:36:16;;;;;;;;;;;;;;;19.09;53.31;101407.44;5039897;28;19917;-76
2022/07/30 10:38:42;;;;;;;;;;;;;;;19.06;53.34;101407.56;5024448;28;19972;-77
2022/07/30 10:41:10;;;;;;;;;;;;;;;19.16;53.63;101418.53;5026967;28;19948;-77
2022/07/30 10:43:48;;;;;;;;;;;;;;;19.17;53.34;101412.31;5028098;28;19921;-77
2022/07/30 10:46:16;;;;;;;;;;;;;;;19.17;51.55;101414.97;5025808;28;19928;-77
2022/07/30 10:48:41;;;;;;;;;;;;;;;19.15;51.15;101412.41;5024372;28;22759;-77
2022/07/30 10:51:07;;;;;;;;;;;;;;;19.18;50.38;101420.16;5025760;28;19917;-78
2022/07/30 10:53:33;;;;;;;;;;;;;;;19.16;51.49;101415.91;5032050;28;19932;-78
2022/07/30 10:56:17;;;;;;;;;;;;;;;19.12;51.96;101419.59;5028079;28;19926;-78
2022/07/30 10:59:01;;;;;;;;;;;;;;;19.11;51.58;101413.47;5027664;28;19956;-78
2022/07/30 11:01:45;;;;;;;;;;;;;;;19.15;52.13;101411.56;5027712;28;19921;-78
2022/07/30 11:04:26;;;;;;;;;;;;;;;19.29;51.09;101405.66;5049336;28;19940;-78
2022/07/30 11:07:01;;;;;;;;;;;;;;;19.31;47.96;101406.47;5036896;28;20008;-78
2022/07/30 11:09:42;;;;;;;;;;;;;;;19.31;47.14;101407.31;5027416;28;19921;-78
2022/07/30 11:12:08;;;;;;;;;;;;;;;19.29;48.61;101401.25;5028350;28;19943;-78
2022/07/30 11:14:45;;;;;;;;;;;;;;;19.28;47.37;101402.19;5026597;28;19921;-77
2022/07/30 11:17:11;;;;;;;;;;;;;;;19.24;46.50;101392.69;5026240;28;20000;-77
2022/07/30 11:20:17;;;;;;;;;;;;;;;19.31;45.81;101386.25;5032800;28;20004;-77
2022/07/30 11:22:47;;;;;;;;;;;;;;;19.35;44.03;101392.19;4987851;28;19922;-77
2022/07/30 11:25:28;;;;;;;;;;;;;;;19.40;43.69;101395.50;5006568;28;19917;-77
2022/07/30 11:27:53;;;;;;;;;;;;;;;19.37;44.23;101391.22;5021644;28;19967;-78
2022/07/30 13:09:46;;;;;;;;;;;;;;;20.61;42.70;101355.06;5026835;28;20695;-77
2022/07/30 13:12:12;;;;;;;;;;;;;;;20.40;43.44;101358.81;5045408;28;20023;-78
2022/07/30 13:14:38;;;;;;;;;;;;;;;20.40;43.64;101358.81;5031471;28;20015;-77
2022/07/30 13:17:05;;;;;;;;;;;;;;;20.24;47.74;101356.13;5035117;28;19952;-77
2022/07/30 13:19:31;;;;;;;;;;;;;;;20.29;45.09;101348.84;5035445;28;19929;-77
2022/07/30 13:21:56;;;;;;;;;;;;;;;20.62;43.15;101354.94;5034487;28;20281;-77
2022/07/30 13:24:21;;;;;;;;;;;;;;;20.22;47.08;101352.72;5033374;28;19913;-78
2022/07/30 13:26:47;;;;;;;;;;;;;;;20.48;43.97;101356.63;5036026;28;19936;-76
2022/07/30 13:29:13;;;;;;;;;;;;;;;20.37;45.65;101358.97;5027556;28;19925;-77
2022/07/30 13:31:39;;;;;;;;;;;;;;;20.66;42.99;101355.66;5046298;28;19921;-77
2022/07/30 13:34:04;;;;;;;;;;;;;;;20.45;44.62;101357.63;5053255;28;20388;-78
2022/07/30 13:36:30;;;;;;;;;;;;;;;20.82;42.96;101359.19;5033098;28;19925;-78
2022/07/30 13:38:55;;;;;;;;;;;;;;;20.85;43.25;101351.97;5011962;28;19917;-77
2022/07/30 13:41:20;;;;;;;;;;;;;;;20.89;43.07;101352.66;5031622;28;19931;-77
2022/07/30 13:43:46;;;;;;;;;;;;;;;20.72;45.88;101352.69;5047759;28;19925;-77
2022/07/30 13:46:11;;;;;;;;;;;;;;;20.95;43.60;101352.31;5039556;28;20294;-77
2022/07/30 13:48:37;;;;;;;;;;;;;;;21.18;43.22;101348.41;5041816;28;20292;-77
2022/07/30 13:51:03;;;;;;;;;;;;;;;21.14;42.31;101352.16;5029946;28;20366;-77
2022/07/30 13:53:28;;;;;;;;;;;;;;;21.33;41.41;101347.56;5031806;28;19936;-77
2022/07/30 13:55:54;;;;;;;;;;;;;;;21.12;41.77;101352.25;5028233;28;20879;-77
2022/07/30 13:58:20;;;;;;;;;;;;;;;21.29;41.50;101343.38;5035645;28;20401;-78
2022/07/30 14:00:46;;;;;;;;;;;;;;;21.71;40.35;101348.88;5035184;28;20397;-77
2022/07/30 14:03:13;;;;;;;;;;;;;;;21.95;39.39;101330.72;5036540;28;19932;-77
2022/07/30 14:05:40;;;;;;;;;;;;;;;21.57;41.99;101332.91;5035319;28;19917;-77
2022/07/30 14:08:06;;;;;;;;;;;;;;;21.73;40.13;101335.56;5021940;28;20289;-77
2022/07/30 14:10:33;;;;;;;;;;;;;;;21.54;41.38;101332.25;5030505;28;19928;-77
2022/07/30 14:12:59;;;;;;;;;;;;;;;21.53;41.39;101326.13;5016614;28;19936;-77
2022/07/30 14:15:25;;;;;;;;;;;;;;;21.26;41.59;101330.34;5015438;28;19945;-78